createdAt,value
2018-11-25T00:00:50.940Z,10.83
2018-11-25T00:03:19.489Z,11.60
2018-11-25T00:06:07.357Z,11.53
2018-11-25T00:08:35.801Z,11.43
2018-11-25T00:11:04.351Z,11.13
2018-11-25T00:13:32.952Z,11.87
2018-11-25T00:16:01.909Z,11.73
2018-11-25T00:18:30.362Z,12.90
2018-11-25T00:20:58.855Z,10.97
2018-11-25T00:23:27.359Z,11.10
2018-11-25T00:25:55.904Z,12.40
2018-11-25T00:28:24.383Z,11.40
2018-11-25T00:30:52.843Z,12.30
2018-11-25T00:33:21.603Z,12.17
2018-11-25T00:35:50.123Z,12.93
2018-11-25T00:38:18.639Z,12.57
2018-11-25T00:40:47.183Z,14.30
2018-11-25T00:43:15.674Z,13.07
2018-11-25T00:45:44.263Z,13.40
2018-11-25T00:48:12.912Z,13.70
2018-11-25T00:50:41.818Z,14.13
2018-11-25T00:53:10.314Z,14.77
2018-11-25T00:55:38.934Z,15.50
2018-11-25T00:58:07.471Z,16.53
2018-11-25T01:00:36.049Z,15.73
2018-11-25T01:03:04.574Z,17.00
2018-11-25T01:05:33.535Z,16.93
2018-11-25T01:08:02.321Z,16.33
2018-11-25T01:10:30.887Z,15.20
2018-11-25T01:12:59.485Z,17.83
2018-11-25T01:15:28.119Z,16.47
2018-11-25T01:17:56.641Z,16.70
2018-11-25T01:36:43.581Z,19.03
2018-11-25T01:39:12.078Z,19.60
2018-11-25T01:41:40.512Z,21.13
2018-11-25T01:44:09.131Z,20.30
2018-11-25T01:46:38.145Z,20.47
2018-11-25T01:49:06.785Z,20.53
2018-11-25T01:51:35.379Z,20.70
2018-11-25T01:54:03.970Z,20.27
2018-11-25T01:56:32.612Z,20.93
2018-11-25T01:59:01.101Z,19.80
2018-11-25T02:01:29.748Z,19.50
2018-11-25T02:03:58.360Z,18.30
2018-11-25T02:06:27.026Z,18.07
2018-11-25T02:11:51.296Z,15.27
2018-11-25T02:14:19.725Z,16.70
2018-11-25T02:16:48.360Z,16.70
2018-11-25T02:19:16.950Z,16.77
2018-11-25T02:21:45.341Z,16.40
2018-11-25T02:24:14.010Z,17.63
2018-11-25T02:26:42.552Z,17.20
2018-11-25T02:29:11.105Z,14.50
2018-11-25T02:31:39.574Z,15.57
2018-11-25T02:34:08.244Z,15.40
2018-11-25T02:36:37.357Z,15.13
2018-11-25T02:39:08.636Z,16.60
2018-11-25T02:41:37.830Z,16.67
2018-11-25T02:44:06.455Z,16.90
2018-11-25T02:46:35.072Z,16.33
2018-11-25T02:49:03.700Z,16.57
2018-11-25T02:51:32.543Z,15.27
2018-11-25T02:54:01.244Z,15.03
2018-11-25T02:56:29.886Z,14.37
2018-11-25T02:58:58.579Z,14.43
2018-11-25T03:01:27.145Z,14.73
2018-11-25T03:03:56.204Z,15.47
2018-11-25T03:06:43.996Z,14.63
2018-11-25T03:09:12.865Z,16.23
2018-11-25T03:11:43.387Z,16.67
2018-11-25T03:14:12.023Z,16.60
2018-11-25T03:16:40.546Z,17.27
2018-11-25T03:19:09.090Z,17.53
2018-11-25T03:21:37.639Z,18.67
2018-11-25T03:24:06.560Z,18.53
2018-11-25T03:26:34.852Z,18.37
2018-11-25T03:29:03.838Z,18.70
2018-11-25T03:31:32.284Z,18.47
2018-11-25T03:34:00.790Z,18.80
2018-11-25T03:36:29.362Z,18.70
2018-11-25T03:38:57.977Z,17.60
2018-11-25T03:41:26.478Z,17.03
2018-11-25T03:43:55.059Z,16.60
2018-11-25T03:46:23.517Z,15.47
2018-11-25T03:48:52.191Z,19.03
2018-11-25T03:51:20.695Z,17.77
2018-11-25T03:53:49.335Z,15.97
2018-11-25T03:56:17.795Z,15.40
2018-11-25T03:58:46.362Z,17.83
2018-11-25T04:01:14.946Z,16.97
2018-11-25T04:03:43.809Z,16.13
2018-11-25T04:06:12.502Z,15.50
2018-11-25T04:08:41.085Z,17.30
2018-11-25T04:11:09.729Z,17.97
2018-11-25T04:13:40.776Z,16.43
2018-11-25T04:16:28.641Z,16.03
2018-11-25T04:18:57.189Z,14.53
2018-11-25T04:21:26.294Z,13.77
2018-11-25T04:23:55.012Z,14.27
2018-11-25T04:26:23.695Z,14.17
2018-11-25T04:42:34.499Z,18.13
2018-11-25T04:45:02.993Z,17.90
2018-11-25T04:47:31.400Z,17.67
2018-11-25T04:49:59.882Z,17.93
2018-11-25T04:52:28.450Z,17.83
2018-11-25T04:54:56.999Z,20.00
2018-11-25T04:57:25.394Z,19.17
2018-11-25T04:59:53.963Z,17.20
2018-11-25T05:02:22.475Z,17.27
2018-11-25T05:04:51.757Z,17.17
2018-11-25T05:07:19.400Z,16.60
2018-11-25T05:09:47.940Z,16.30
2018-11-25T05:12:16.515Z,14.87
2018-11-25T05:14:44.998Z,15.27
2018-11-25T05:17:13.573Z,16.17
2018-11-25T05:19:42.094Z,14.87
2018-11-25T05:22:10.642Z,15.73
2018-11-25T05:24:39.185Z,14.43
2018-11-25T05:27:07.650Z,14.50
2018-11-25T05:29:36.341Z,15.50
2018-11-25T05:32:05.544Z,15.23
2018-11-25T05:34:34.640Z,14.97
2018-11-25T05:37:03.631Z,13.20
2018-11-25T05:39:32.230Z,15.20
2018-11-25T05:42:00.736Z,15.47
2018-11-25T05:44:29.442Z,16.27
2018-11-25T05:46:58.411Z,16.60
2018-11-25T05:49:26.996Z,15.43
2018-11-25T05:51:55.588Z,16.70
2018-11-25T05:54:24.670Z,16.53
2018-11-25T05:56:53.786Z,17.37
2018-11-25T05:59:22.373Z,17.80
2018-11-25T06:01:51.447Z,19.70
2018-11-25T06:04:20.374Z,19.57
2018-11-25T06:06:49.022Z,20.40
2018-11-25T06:09:17.633Z,20.03
2018-11-25T06:11:46.278Z,21.70
2018-11-25T06:14:14.769Z,19.57
2018-11-25T06:16:43.370Z,20.43
2018-11-25T06:19:11.842Z,19.43
2018-11-25T06:21:40.481Z,20.17
2018-11-25T06:24:09.009Z,18.37
2018-11-25T06:26:37.568Z,19.30
2018-11-25T06:29:06.286Z,19.17
2018-11-25T06:31:36.640Z,19.20
2018-11-25T06:34:05.428Z,19.00
2018-11-25T06:36:33.908Z,19.70
2018-11-25T06:39:02.397Z,25.70
2018-11-25T06:41:34.041Z,21.23
2018-11-25T06:44:00.131Z,19.23
2018-11-25T06:46:28.735Z,18.80
2018-11-25T06:48:58.286Z,19.50
2018-11-25T06:51:26.740Z,19.27
2018-11-25T06:53:55.366Z,21.47
2018-11-25T06:56:27.548Z,19.27
2018-11-25T06:58:52.618Z,21.53
2018-11-25T07:01:21.064Z,21.83
2018-11-25T07:03:49.663Z,19.37
2018-11-25T07:06:18.214Z,19.37
2018-11-25T07:08:46.608Z,17.00
2018-11-25T07:11:15.286Z,18.47
2018-11-25T07:13:43.769Z,18.13
2018-11-25T07:16:12.265Z,27.47
2018-11-25T07:18:40.755Z,25.10
2018-11-25T07:21:09.237Z,18.23
2018-11-25T07:23:37.704Z,16.97
2018-11-25T07:26:06.226Z,18.57
2018-11-25T07:28:34.805Z,17.40
2018-11-25T07:31:03.230Z,17.43
2018-11-25T07:33:31.851Z,19.57
2018-11-25T07:36:00.351Z,20.57
2018-11-25T07:38:28.767Z,19.40
2018-11-25T07:40:57.726Z,23.30
2018-11-25T07:43:26.160Z,22.10
2018-11-25T07:45:54.786Z,22.10
2018-11-25T07:48:23.254Z,21.10
2018-11-25T07:50:52.071Z,21.57
2018-11-25T07:53:20.606Z,19.50
2018-11-25T07:55:49.199Z,21.13
2018-11-25T07:58:17.978Z,20.97
2018-11-25T08:00:46.362Z,21.93
2018-11-25T08:03:14.924Z,23.53
2018-11-25T08:05:43.560Z,23.40
2018-11-25T08:08:12.157Z,21.40
2018-11-25T08:10:47.725Z,22.40
2018-11-25T08:13:16.130Z,26.30
2018-11-25T08:15:44.531Z,23.47
2018-11-25T08:18:13.046Z,26.00
2018-11-25T08:20:41.403Z,25.47
2018-11-25T08:23:09.817Z,23.30
2018-11-25T08:25:38.172Z,25.50
2018-11-25T08:28:06.570Z,27.37
2018-11-25T08:30:34.951Z,26.60
2018-11-25T08:33:03.508Z,28.93
2018-11-25T08:35:31.903Z,27.83
2018-11-25T08:38:00.335Z,28.13
2018-11-25T08:40:28.916Z,28.53
2018-11-25T08:42:57.272Z,28.13
2018-11-25T08:45:25.791Z,28.63
2018-11-25T08:47:54.239Z,28.80
2018-11-25T08:50:22.561Z,28.97
2018-11-25T08:53:10.387Z,27.20
2018-11-25T08:55:38.748Z,29.50
2018-11-25T08:58:07.217Z,26.70
2018-11-25T09:00:35.506Z,27.03
2018-11-25T09:03:03.893Z,26.97
2018-11-25T09:05:32.249Z,26.53
2018-11-25T09:08:00.614Z,27.07
2018-11-25T09:10:29.006Z,25.97
2018-11-25T09:12:58.255Z,26.33
2018-11-25T09:15:27.902Z,24.93
2018-11-25T09:17:56.274Z,26.77
2018-11-25T09:20:24.599Z,25.43
2018-11-25T09:22:53.508Z,24.13
2018-11-25T09:25:41.184Z,24.33
2018-11-25T09:28:09.569Z,25.03
2018-11-25T09:30:37.940Z,23.90
2018-11-25T09:33:06.302Z,24.70
2018-11-25T09:35:34.734Z,25.50
2018-11-25T09:38:03.102Z,24.07
2018-11-25T09:40:31.451Z,23.20
2018-11-25T09:42:59.896Z,23.83
2018-11-25T09:45:28.209Z,24.70
2018-11-25T09:47:56.574Z,23.03
2018-11-25T09:50:25.044Z,23.07
2018-11-25T09:52:53.500Z,25.10
2018-11-25T09:55:22.854Z,27.40
2018-11-25T09:57:52.426Z,22.83
2018-11-25T10:00:40.179Z,21.20
2018-11-25T10:03:08.766Z,21.47
2018-11-25T10:05:37.141Z,22.27
2018-11-25T10:08:06.227Z,21.73
2018-11-25T10:10:34.647Z,22.93
2018-11-25T10:13:03.106Z,22.87
2018-11-25T10:15:31.555Z,24.07
2018-11-25T10:18:00.310Z,23.30
2018-11-25T10:20:29.691Z,24.27
2018-11-25T10:22:58.109Z,25.90
2018-11-25T10:25:26.511Z,26.20
2018-11-25T10:27:54.928Z,25.33
2018-11-25T10:30:25.029Z,26.13
2018-11-25T10:33:13.090Z,26.60
2018-11-25T10:35:41.441Z,26.00
2018-11-25T10:38:09.924Z,26.87
2018-11-25T10:40:38.326Z,26.33
2018-11-25T10:43:06.786Z,27.10
2018-11-25T10:45:35.466Z,28.67
2018-11-25T10:48:04.039Z,29.70
2018-11-25T10:50:32.376Z,26.50
2018-11-25T10:53:00.833Z,25.60
2018-11-25T10:55:29.231Z,27.17
2018-11-25T10:57:57.656Z,27.37
2018-11-25T11:01:04.437Z,28.20
2018-11-25T11:03:52.098Z,26.73
2018-11-25T11:06:47.084Z,28.30
2018-11-25T11:09:15.986Z,28.47
2018-11-25T11:15:44.831Z,29.57
2018-11-25T11:18:13.817Z,29.00
2018-11-25T11:21:07.880Z,28.13
2018-11-25T11:24:23.685Z,27.03
2018-11-25T11:34:22.932Z,28.83
2018-11-25T11:44:44.192Z,30.10
2018-11-25T11:47:12.980Z,30.13
2018-11-25T11:49:41.426Z,29.57
2018-11-25T11:56:27.840Z,27.50
2018-11-25T12:01:53.410Z,27.43
2018-11-25T12:04:33.770Z,27.60
2018-11-25T12:07:02.273Z,30.13
2018-11-25T12:10:36.339Z,29.07
2018-11-25T12:13:05.740Z,31.50
2018-11-25T12:16:03.171Z,33.73
2018-11-25T12:18:36.349Z,33.37
2018-11-25T12:45:55.350Z,37.67
2018-11-25T12:48:56.494Z,37.03
2018-11-25T12:51:42.627Z,39.47
2018-11-25T12:54:21.453Z,40.63
2018-11-25T12:56:56.169Z,38.73
2018-11-25T13:00:10.236Z,40.00
2018-11-25T13:13:27.096Z,35.40
2018-11-25T13:16:04.592Z,38.03
2018-11-25T13:19:38.579Z,37.33
2018-11-25T13:23:09.067Z,36.93
2018-11-25T13:44:50.344Z,39.90
2018-11-25T13:47:54.160Z,38.67
2018-11-25T13:50:25.228Z,37.23
2018-11-25T13:53:34.103Z,37.60
2018-11-25T13:56:38.285Z,35.03
2018-11-25T14:03:13.767Z,33.47
2018-11-25T14:05:43.077Z,36.07
2018-11-25T14:08:37.130Z,33.47
2018-11-25T14:12:20.137Z,38.73
2018-11-25T14:21:46.838Z,32.37
2018-11-25T14:24:39.861Z,34.67
2018-11-25T14:30:13.178Z,35.20
2018-11-25T14:32:36.757Z,35.57
2018-11-25T14:35:05.905Z,33.87
2018-11-25T14:37:34.304Z,36.27
2018-11-25T14:40:02.698Z,35.40
2018-11-25T14:42:31.042Z,35.33
2018-11-25T14:44:59.452Z,35.97
2018-11-25T14:47:27.878Z,35.73
2018-11-25T14:49:56.378Z,37.60
2018-11-25T14:52:25.293Z,37.00
2018-11-25T14:54:53.677Z,36.93
2018-11-25T14:57:22.042Z,33.77
2018-11-25T14:59:50.490Z,34.00
2018-11-25T15:02:18.897Z,33.30
2018-11-25T15:04:47.573Z,37.57
2018-11-25T15:07:15.896Z,35.53
2018-11-25T15:09:44.959Z,34.20
2018-11-25T15:12:13.422Z,35.73
2018-11-25T15:14:41.778Z,35.23
2018-11-25T15:17:10.167Z,35.97
2018-11-25T15:19:38.531Z,37.07
2018-11-25T15:22:06.934Z,35.07
2018-11-25T15:24:39.114Z,35.30
2018-11-25T15:53:57.223Z,40.17
2018-11-25T16:00:55.315Z,38.43
2018-11-25T16:24:44.865Z,37.67
2018-11-25T16:35:45.778Z,38.27
2018-11-25T16:38:37.399Z,35.53
2018-11-25T16:48:50.213Z,35.83
2018-11-25T16:51:35.131Z,34.23
2018-11-25T16:55:00.835Z,37.60
2018-11-25T17:09:11.557Z,34.03
2018-11-25T17:11:40.368Z,34.50
2018-11-25T17:14:08.725Z,37.67
2018-11-25T17:16:37.144Z,37.57
2018-11-25T17:19:05.570Z,39.03
2018-11-25T17:21:53.460Z,35.77
2018-11-25T17:24:21.843Z,35.13
2018-11-25T17:26:50.208Z,35.03
2018-11-25T17:29:18.674Z,35.23
2018-11-25T17:31:47.044Z,36.77
2018-11-25T17:34:15.472Z,38.13
2018-11-25T17:36:43.858Z,38.37
2018-11-25T17:39:12.239Z,41.77
2018-11-25T17:41:41.128Z,40.27
2018-11-25T17:44:09.516Z,41.33
2018-11-25T17:46:37.979Z,42.60
2018-11-25T17:49:06.619Z,38.03
2018-11-25T17:51:35.346Z,37.07
2018-11-25T17:54:03.773Z,37.77
2018-11-25T17:56:32.266Z,37.90
2018-11-25T17:59:00.629Z,37.30
2018-11-25T18:01:29.266Z,37.17
2018-11-25T18:03:57.743Z,36.93
2018-11-25T18:06:26.195Z,38.97
2018-11-25T18:08:54.814Z,39.50
2018-11-25T18:11:23.346Z,38.97
2018-11-25T18:13:51.751Z,36.03
2018-11-25T18:16:20.203Z,37.33
2018-11-25T18:18:51.413Z,36.10
2018-11-25T18:21:39.259Z,37.30
2018-11-25T18:24:26.998Z,37.10
2018-11-25T18:26:55.443Z,36.47
2018-11-25T18:29:23.885Z,36.13
2018-11-25T18:31:52.265Z,35.77
2018-11-25T18:34:20.604Z,35.90
2018-11-25T18:36:49.289Z,35.40
2018-11-25T18:39:17.801Z,35.73
2018-11-25T18:41:46.250Z,35.83
2018-11-25T18:44:14.628Z,33.87
2018-11-25T18:46:47.581Z,34.53
2018-11-25T18:49:11.706Z,33.67
2018-11-25T18:51:40.066Z,32.87
2018-11-25T18:54:09.189Z,32.63
2018-11-25T18:56:37.535Z,36.07
2018-11-25T18:59:06.565Z,34.97
2018-11-25T19:02:13.627Z,33.47
2018-11-25T19:04:42.287Z,32.70
2018-11-25T19:07:10.749Z,33.00
2018-11-25T19:09:39.165Z,33.40
2018-11-25T19:12:07.600Z,31.67
2018-11-25T19:14:35.951Z,30.53
2018-11-25T19:17:04.386Z,30.87
2018-11-25T19:19:32.804Z,30.00
2018-11-25T19:22:01.237Z,51.10
2018-11-25T19:24:29.629Z,32.03
2018-11-25T19:26:58.031Z,34.13
2018-11-25T19:29:26.616Z,29.43
2018-11-25T19:31:55.065Z,31.03
2018-11-25T19:34:23.767Z,27.57
2018-11-25T19:36:52.193Z,26.87
2018-11-25T19:39:20.905Z,26.23
2018-11-25T19:41:49.277Z,24.10
2018-11-25T19:44:17.787Z,23.40
2018-11-25T19:46:46.594Z,22.20
2018-11-25T19:49:15.361Z,23.37
2018-11-25T19:51:43.903Z,23.43
2018-11-25T19:54:12.412Z,24.57
2018-11-25T19:56:40.870Z,23.33
2018-11-25T19:59:09.426Z,23.77
2018-11-25T20:01:37.889Z,23.80
2018-11-25T20:04:06.637Z,22.27
2018-11-25T20:06:34.985Z,20.40
2018-11-25T20:09:03.392Z,18.43
2018-11-25T20:11:31.743Z,18.83
2018-11-25T20:14:00.410Z,17.70
2018-11-25T20:16:48.205Z,16.10
2018-11-25T20:19:16.678Z,17.60
2018-11-25T20:22:04.267Z,16.83
2018-11-25T20:24:32.713Z,16.53
2018-11-25T20:27:20.119Z,21.07
2018-11-25T20:29:48.617Z,18.63
2018-11-25T20:32:36.463Z,18.70
2018-11-25T20:35:05.285Z,19.27
2018-11-25T20:37:34.360Z,17.20
2018-11-25T20:40:02.727Z,17.97
2018-11-25T20:42:31.357Z,18.87
2018-11-25T20:45:00.339Z,19.87
2018-11-25T20:47:29.045Z,18.47
2018-11-25T20:49:57.541Z,21.10
2018-11-25T20:52:45.121Z,19.93
2018-11-25T20:55:13.505Z,19.30
2018-11-25T20:57:42.164Z,18.63
2018-11-25T21:00:30.863Z,18.40
2018-11-25T21:03:00.552Z,18.43
2018-11-25T21:05:30.026Z,17.70
2018-11-25T21:07:58.670Z,18.83
2018-11-25T21:10:27.690Z,19.63
2018-11-25T21:12:56.926Z,19.27
2018-11-25T21:15:26.019Z,18.03
2018-11-25T21:17:54.689Z,18.50
2018-11-25T21:20:50.869Z,19.77
2018-11-25T21:23:12.367Z,19.27
2018-11-25T21:25:41.889Z,19.00
2018-11-25T21:28:10.579Z,18.37
2018-11-25T21:30:39.483Z,17.60
2018-11-25T21:33:08.410Z,17.23
2018-11-25T21:35:36.971Z,17.90
2018-11-25T21:38:05.556Z,16.97
2018-11-25T21:40:35.378Z,17.80
2018-11-25T21:43:04.030Z,17.97
2018-11-25T21:45:32.732Z,16.30
2018-11-25T21:48:01.338Z,16.70
2018-11-25T21:50:30.332Z,16.87
2018-11-25T21:52:59.402Z,17.00
2018-11-25T21:55:28.092Z,16.00
2018-11-25T21:58:16.092Z,16.63
2018-11-25T22:00:45.614Z,16.90
2018-11-25T22:03:14.257Z,16.00
2018-11-25T22:05:42.957Z,16.33
2018-11-25T22:08:11.329Z,15.50
2018-11-25T22:11:01.323Z,16.33
2018-11-25T22:13:30.811Z,16.10
2018-11-25T22:15:59.804Z,15.23
2018-11-25T22:21:36.805Z,16.33
2018-11-25T22:24:08.564Z,17.20
2018-11-25T22:26:37.178Z,15.93
2018-11-25T22:29:07.377Z,16.30
2018-11-25T22:31:35.907Z,15.43
2018-11-25T22:34:12.209Z,17.07
2018-11-25T22:36:42.004Z,15.40
2018-11-25T22:39:12.686Z,16.30
2018-11-25T22:41:41.616Z,16.27
2018-11-25T22:44:11.725Z,16.20
2018-11-25T22:46:40.142Z,15.90
2018-11-25T22:49:08.554Z,14.07
2018-11-25T22:51:57.252Z,15.23
2018-11-25T22:54:25.631Z,15.10
2018-11-25T22:56:54.056Z,15.47
2018-11-25T22:59:42.290Z,17.13
2018-11-25T23:02:30.825Z,17.67
2018-11-25T23:05:38.052Z,20.63
2018-11-25T23:08:07.606Z,21.70
2018-11-25T23:10:36.706Z,20.40
2018-11-25T23:13:05.652Z,19.27
2018-11-25T23:15:34.324Z,18.23
2018-11-25T23:18:02.925Z,17.23
2018-11-25T23:20:34.516Z,16.37
2018-11-25T23:23:03.578Z,16.23
2018-11-25T23:25:32.252Z,16.27
2018-11-25T23:28:01.015Z,17.73
2018-11-25T23:30:30.375Z,16.80
2018-11-25T23:33:03.540Z,16.23
2018-11-25T23:35:33.176Z,16.73
2018-11-25T23:38:01.552Z,16.63
2018-11-25T23:40:29.930Z,16.60
2018-11-25T23:42:58.304Z,16.43
2018-11-25T23:45:26.784Z,16.17
2018-11-25T23:47:55.146Z,16.17
2018-11-25T23:50:24.016Z,16.17
2018-11-25T23:52:52.360Z,17.87
2018-11-25T23:55:20.761Z,25.00
2018-11-25T23:57:49.117Z,26.03
